createdAt,value
2018-08-13T00:01:51.197Z,53.00
2018-08-13T00:04:20.509Z,53.10
2018-08-13T00:06:49.737Z,53.30
2018-08-13T00:09:24.182Z,53.60
2018-08-13T00:11:53.671Z,53.80
2018-08-13T00:14:22.861Z,53.80
2018-08-13T00:16:52.103Z,53.90
2018-08-13T00:19:21.311Z,54.20
2018-08-13T00:21:50.565Z,54.70
2018-08-13T00:24:19.782Z,54.50
2018-08-13T00:26:49.096Z,55.10
2018-08-13T00:29:18.302Z,54.80
2018-08-13T00:31:47.566Z,54.70
2018-08-13T00:34:16.808Z,54.30
2018-08-13T00:36:46.030Z,54.20
2018-08-13T00:39:15.249Z,54.60
2018-08-13T00:41:44.466Z,54.50
2018-08-13T00:44:13.676Z,54.50
2018-08-13T00:46:42.888Z,54.80
2018-08-13T00:49:12.114Z,55.00
2018-08-13T00:51:48.029Z,55.10
2018-08-13T00:54:17.281Z,55.50
2018-08-13T00:56:46.497Z,56.10
2018-08-13T00:59:15.817Z,56.40
2018-08-13T01:01:45.045Z,56.30
2018-08-13T01:04:14.232Z,57.00
2018-08-13T01:06:43.452Z,56.70
2018-08-13T01:09:12.645Z,56.60
2018-08-13T01:11:41.851Z,56.60
2018-08-13T01:14:11.069Z,56.80
2018-08-13T01:16:40.272Z,56.90
2018-08-13T01:19:09.501Z,57.10
2018-08-13T01:21:38.708Z,57.10
2018-08-13T01:24:07.907Z,57.10
2018-08-13T01:26:37.149Z,57.70
2018-08-13T01:29:06.819Z,57.80
2018-08-13T01:31:36.032Z,58.10
2018-08-13T01:34:05.230Z,58.00
2018-08-13T01:36:34.429Z,57.90
2018-08-13T01:39:04.542Z,58.00
2018-08-13T01:41:33.741Z,58.00
2018-08-13T01:44:02.961Z,58.20
2018-08-13T01:46:32.165Z,58.20
2018-08-13T01:49:01.385Z,58.20
2018-08-13T01:51:30.798Z,58.10
2018-08-13T01:53:59.984Z,58.30
2018-08-13T01:56:29.228Z,58.20
2018-08-13T01:58:58.457Z,58.50
2018-08-13T02:01:27.751Z,58.70
2018-08-13T02:03:56.902Z,59.00
2018-08-13T02:06:26.219Z,58.90
2018-08-13T02:08:55.619Z,59.10
2018-08-13T02:11:24.840Z,59.20
2018-08-13T02:13:54.026Z,59.80
2018-08-13T02:16:23.252Z,60.10
2018-08-13T02:18:52.446Z,60.50
2018-08-13T02:21:21.674Z,60.80
2018-08-13T02:23:50.880Z,61.00
2018-08-13T02:26:20.090Z,61.00
2018-08-13T02:28:49.294Z,61.50
2018-08-13T02:31:18.498Z,61.80
2018-08-13T02:33:47.679Z,61.50
2018-08-13T02:36:16.913Z,61.40
2018-08-13T02:38:46.107Z,62.10
2018-08-13T02:41:15.313Z,62.30
2018-08-13T02:43:44.504Z,62.70
2018-08-13T02:46:13.717Z,62.80
2018-08-13T02:48:42.917Z,62.80
2018-08-13T02:51:12.142Z,62.70
2018-08-13T02:53:41.331Z,62.90
2018-08-13T02:56:11.444Z,62.70
2018-08-13T02:58:40.671Z,63.40
2018-08-13T03:01:09.886Z,63.40
2018-08-13T03:03:39.126Z,63.50
2018-08-13T03:06:08.361Z,63.90
2018-08-13T03:08:37.573Z,64.10
2018-08-13T03:11:07.061Z,64.50
2018-08-13T03:13:36.254Z,64.80
2018-08-13T03:16:05.554Z,64.80
2018-08-13T03:18:34.764Z,64.80
2018-08-13T03:21:04.036Z,64.50
2018-08-13T03:23:33.254Z,64.60
2018-08-13T03:26:02.549Z,64.70
2018-08-13T03:28:31.750Z,64.80
2018-08-13T03:31:00.955Z,65.10
2018-08-13T03:33:30.238Z,64.90
2018-08-13T03:35:59.580Z,64.50
2018-08-13T03:38:28.831Z,64.50
2018-08-13T03:40:58.121Z,64.50
2018-08-13T03:43:27.345Z,64.40
2018-08-13T03:45:56.570Z,64.10
2018-08-13T03:48:25.815Z,64.00
2018-08-13T03:50:55.123Z,64.60
2018-08-13T03:53:24.343Z,63.70
2018-08-13T03:55:53.547Z,63.10
2018-08-13T03:58:22.759Z,62.80
2018-08-13T04:00:51.974Z,62.50
2018-08-13T04:03:21.195Z,62.30
2018-08-13T04:05:50.390Z,62.20
2018-08-13T04:08:19.633Z,62.20
2018-08-13T04:10:48.810Z,62.70
2018-08-13T04:13:18.022Z,63.20
2018-08-13T04:15:47.197Z,63.60
2018-08-13T04:18:16.404Z,64.00
2018-08-13T04:20:45.654Z,64.30
2018-08-13T04:23:14.886Z,64.30
2018-08-13T04:25:44.062Z,64.10
2018-08-13T04:28:13.264Z,64.40
2018-08-13T04:30:42.442Z,64.40
2018-08-13T04:33:11.656Z,64.50
2018-08-13T04:35:40.838Z,64.30
2018-08-13T04:38:10.041Z,63.90
2018-08-13T04:40:39.235Z,63.60
2018-08-13T04:43:08.598Z,63.40
2018-08-13T04:45:37.776Z,63.00
2018-08-13T04:48:07.049Z,62.80
2018-08-13T04:50:36.302Z,62.70
2018-08-13T04:53:05.544Z,62.40
2018-08-13T04:55:34.737Z,62.20
2018-08-13T04:58:03.973Z,61.90
2018-08-13T05:00:33.165Z,61.80
2018-08-13T05:03:02.381Z,61.20
2018-08-13T05:05:31.561Z,60.90
2018-08-13T05:08:00.842Z,60.40
2018-08-13T05:10:30.229Z,60.10
2018-08-13T05:12:59.460Z,60.00
2018-08-13T05:15:28.682Z,59.90
2018-08-13T05:17:57.944Z,59.70
2018-08-13T05:20:27.136Z,59.60
2018-08-13T05:22:56.408Z,59.70
2018-08-13T05:25:25.642Z,59.60
2018-08-13T05:27:54.901Z,59.40
2018-08-13T05:30:24.410Z,58.80
2018-08-13T05:32:53.609Z,59.20
2018-08-13T05:35:22.808Z,57.70
2018-08-13T05:37:52.095Z,57.30
2018-08-13T05:40:21.309Z,57.30
2018-08-13T05:42:50.554Z,57.00
2018-08-13T05:45:20.048Z,56.90
2018-08-13T05:47:49.288Z,56.60
2018-08-13T05:50:18.492Z,56.20
2018-08-13T05:52:47.786Z,56.10
2018-08-13T05:55:16.990Z,56.20
2018-08-13T05:57:46.356Z,56.10
2018-08-13T06:00:15.631Z,56.40
2018-08-13T06:02:44.849Z,56.40
2018-08-13T06:05:14.189Z,56.60
2018-08-13T06:07:43.720Z,56.00
2018-08-13T06:10:13.525Z,55.60
2018-08-13T06:12:42.833Z,55.60
2018-08-13T06:15:13.589Z,55.20
2018-08-13T06:17:42.987Z,54.80
2018-08-13T06:20:13.368Z,54.30
2018-08-13T06:22:43.733Z,54.80
2018-08-13T06:25:14.036Z,54.10
2018-08-13T06:27:43.305Z,53.90
2018-08-13T06:30:15.071Z,53.60
2018-08-13T06:32:44.794Z,53.50
2018-08-13T06:35:14.545Z,53.40
2018-08-13T06:37:44.494Z,53.00
2018-08-13T06:40:14.163Z,52.80
2018-08-13T06:42:43.627Z,53.00
2018-08-13T06:45:12.828Z,52.20
2018-08-13T06:47:42.250Z,52.10
2018-08-13T06:50:12.891Z,51.90
2018-08-13T06:52:42.144Z,51.70
2018-08-13T06:55:11.398Z,51.50
2018-08-13T06:57:40.641Z,51.40
2018-08-13T07:00:12.913Z,51.40
2018-08-13T07:02:42.527Z,51.20
2018-08-13T07:05:12.348Z,51.20
2018-08-13T07:07:42.074Z,51.10
2018-08-13T07:10:13.337Z,50.50
2018-08-13T07:12:44.455Z,50.30
2018-08-13T07:15:14.715Z,50.00
2018-08-13T07:17:43.974Z,49.80
2018-08-13T07:20:15.454Z,49.00
2018-08-13T07:22:45.217Z,48.70
2018-08-13T07:25:14.507Z,48.50
2018-08-13T07:27:43.730Z,48.10
2018-08-13T07:30:14.652Z,47.90
2018-08-13T07:32:44.405Z,47.50
2018-08-13T07:35:13.742Z,47.00
2018-08-13T07:37:42.947Z,46.70
2018-08-13T07:40:15.216Z,46.30
2018-08-13T07:42:44.827Z,46.20
2018-08-13T07:45:14.127Z,45.80
2018-08-13T07:47:43.446Z,45.80
2018-08-13T07:50:14.704Z,46.00
2018-08-13T07:52:43.921Z,45.30
2018-08-13T07:55:13.884Z,45.00
2018-08-13T07:57:43.177Z,44.90
2018-08-13T08:00:15.374Z,44.50
2018-08-13T08:02:44.731Z,44.50
2018-08-13T08:05:14.206Z,44.20
2018-08-13T08:07:43.676Z,44.10
2018-08-13T08:10:15.698Z,43.70
2018-08-13T08:12:44.921Z,43.70
2018-08-13T08:15:19.126Z,44.00
2018-08-13T08:17:48.429Z,42.80
2018-08-13T08:20:17.667Z,42.10
2018-08-13T08:22:46.881Z,41.90
2018-08-13T08:25:19.140Z,41.30
2018-08-13T08:27:48.393Z,41.00
2018-08-13T08:30:17.666Z,40.70
2018-08-13T08:32:46.957Z,40.50
2018-08-13T08:35:17.843Z,40.30
2018-08-13T08:37:47.113Z,39.90
2018-08-13T08:40:19.016Z,40.00
2018-08-13T08:42:48.801Z,39.70
2018-08-13T08:45:23.424Z,39.30
2018-08-13T08:47:53.568Z,39.40
2018-08-13T08:50:22.911Z,39.50
2018-08-13T08:52:52.168Z,38.30
2018-08-13T08:55:21.483Z,37.70
2018-08-13T08:57:51.224Z,36.70
2018-08-13T09:00:22.321Z,36.40
2018-08-13T09:02:51.599Z,36.80
2018-08-13T09:05:20.839Z,36.20
2018-08-13T09:07:50.064Z,34.70
2018-08-13T09:10:19.306Z,34.20
2018-08-13T09:12:48.586Z,33.70
2018-08-13T09:15:18.371Z,34.60
2018-08-13T09:18:04.673Z,33.70
2018-08-13T09:20:51.033Z,33.60
2018-08-13T09:23:37.516Z,31.20
2018-08-13T09:26:23.869Z,30.80
2018-08-13T09:29:10.086Z,30.20
2018-08-13T09:32:29.692Z,30.00
2018-08-13T09:35:09.509Z,30.40
2018-08-13T09:37:38.707Z,30.40
2018-08-13T09:40:08.954Z,30.30
2018-08-13T09:42:38.229Z,30.70
2018-08-13T09:45:08.641Z,30.70
2018-08-13T09:47:38.609Z,30.30
2018-08-13T09:50:12.186Z,30.00
2018-08-13T09:52:42.076Z,30.30
2018-08-13T09:55:11.607Z,30.60
2018-08-13T09:57:40.885Z,30.80
2018-08-13T10:00:16.212Z,30.50
2018-08-13T10:02:46.144Z,30.20
2018-08-13T10:05:15.806Z,30.00
2018-08-13T10:07:45.492Z,30.20
2018-08-13T10:10:15.441Z,30.40
2018-08-13T10:12:45.351Z,30.50
2018-08-13T10:15:15.193Z,30.60
2018-08-13T10:17:44.482Z,30.30
2018-08-13T10:20:17.185Z,30.30
2018-08-13T10:22:46.697Z,30.40
2018-08-13T10:25:16.022Z,30.20
2018-08-13T10:27:45.253Z,30.40
2018-08-13T10:30:16.204Z,30.00
2018-08-13T10:32:45.815Z,29.80
2018-08-13T10:35:15.030Z,29.70
2018-08-13T10:37:44.240Z,29.80
2018-08-13T10:40:18.001Z,29.60
2018-08-13T10:42:47.648Z,29.50
2018-08-13T10:45:17.089Z,29.30
2018-08-13T10:47:46.302Z,29.50
2018-08-13T10:50:15.800Z,29.40
2018-08-13T10:52:45.006Z,29.70
2018-08-13T10:55:15.555Z,29.50
2018-08-13T10:57:44.851Z,29.70
2018-08-13T11:00:17.116Z,29.70
2018-08-13T11:02:46.604Z,29.70
2018-08-13T11:05:16.499Z,29.70
2018-08-13T11:07:45.810Z,29.70
2018-08-13T11:10:16.063Z,29.10
2018-08-13T11:12:45.297Z,29.00
2018-08-13T11:15:18.628Z,29.50
2018-08-13T11:17:47.884Z,29.70
2018-08-13T11:20:17.496Z,29.80
2018-08-13T11:22:46.930Z,29.60
2018-08-13T11:25:16.911Z,29.40
2018-08-13T11:27:46.176Z,29.80
2018-08-13T11:30:17.008Z,29.90
2018-08-13T11:32:46.209Z,30.00
2018-08-13T11:35:16.147Z,30.20
2018-08-13T11:37:45.348Z,30.10
2018-08-13T11:40:16.687Z,30.10
2018-08-13T11:42:45.894Z,30.00
2018-08-13T11:45:15.152Z,30.10
2018-08-13T11:47:44.353Z,30.70
2018-08-13T11:50:17.946Z,31.10
2018-08-13T11:52:48.483Z,30.80
2018-08-13T11:55:18.192Z,30.70
2018-08-13T11:57:48.535Z,30.60
2018-08-13T12:00:17.848Z,30.90
2018-08-13T12:02:47.046Z,30.80
2018-08-13T12:05:16.891Z,30.30
2018-08-13T12:07:46.337Z,30.40
2018-08-13T12:10:15.957Z,30.00
2018-08-13T12:12:45.527Z,29.90
2018-08-13T12:15:15.147Z,30.00
2018-08-13T12:17:44.768Z,30.20
2018-08-13T12:20:18.908Z,30.00
2018-08-13T12:22:48.389Z,29.80
2018-08-13T12:25:25.213Z,29.90
2018-08-13T12:27:54.921Z,30.50
2018-08-13T12:30:24.198Z,30.00
2018-08-13T12:32:54.529Z,30.00
2018-08-13T12:35:23.762Z,30.00
2018-08-13T12:37:53.180Z,29.80
2018-08-13T12:40:22.435Z,29.80
2018-08-13T12:42:51.701Z,30.10
2018-08-13T12:45:20.911Z,30.40
2018-08-13T12:47:50.150Z,30.90
2018-08-13T12:50:20.522Z,32.60
2018-08-13T12:52:50.921Z,34.60
2018-08-13T12:55:20.187Z,35.70
2018-08-13T12:57:49.426Z,36.10
2018-08-13T13:00:19.470Z,36.50
2018-08-13T13:02:48.671Z,36.50
2018-08-13T13:05:18.607Z,36.50
2018-08-13T13:07:47.867Z,36.60
2018-08-13T13:10:17.930Z,37.00
2018-08-13T13:12:47.289Z,38.20
2018-08-13T13:15:18.925Z,39.30
2018-08-13T13:17:48.413Z,39.70
2018-08-13T13:20:22.950Z,40.20
2018-08-13T13:22:52.779Z,39.90
2018-08-13T13:25:22.005Z,39.70
2018-08-13T13:27:51.257Z,40.00
2018-08-13T13:30:20.474Z,40.60
2018-08-13T13:32:49.714Z,41.10
2018-08-13T13:35:18.984Z,41.40
2018-08-13T13:37:48.347Z,41.80
2018-08-13T13:40:18.220Z,43.00
2018-08-13T13:42:47.488Z,43.70
2018-08-13T13:45:17.759Z,44.50
2018-08-13T13:47:47.211Z,45.40
2018-08-13T13:50:17.601Z,46.10
2018-08-13T13:52:47.045Z,46.50
2018-08-13T13:55:16.947Z,46.90
2018-08-13T13:57:46.212Z,47.40
2018-08-13T14:00:19.101Z,48.20
2018-08-13T14:02:50.153Z,48.50
2018-08-13T14:05:19.623Z,48.80
2018-08-13T14:07:48.895Z,49.30
2018-08-13T14:10:21.215Z,50.50
2018-08-13T14:12:50.483Z,50.90
2018-08-13T14:15:21.448Z,51.20
2018-08-13T14:17:51.204Z,51.70
2018-08-13T14:20:20.678Z,52.40
2018-08-13T14:22:50.013Z,52.70
2018-08-13T14:25:19.236Z,53.80
2018-08-13T14:27:48.467Z,53.60
2018-08-13T14:30:22.213Z,54.20
2018-08-13T14:32:51.657Z,54.40
2018-08-13T14:35:22.105Z,55.20
2018-08-13T14:37:51.546Z,55.10
2018-08-13T14:40:20.777Z,55.00
2018-08-13T14:42:50.016Z,55.00
2018-08-13T14:45:19.768Z,54.90
2018-08-13T14:47:50.449Z,54.80
2018-08-13T14:50:19.686Z,54.70
2018-08-13T14:52:49.672Z,54.70
2018-08-13T14:55:21.641Z,54.70
2018-08-13T14:57:50.872Z,54.80
2018-08-13T15:00:25.802Z,55.10
2018-08-13T15:02:56.156Z,55.30
2018-08-13T15:05:25.462Z,55.20
2018-08-13T15:07:54.700Z,55.30
2018-08-13T15:10:25.972Z,55.50
2018-08-13T15:12:56.442Z,55.30
2018-08-13T15:15:26.285Z,55.70
2018-08-13T15:17:55.610Z,55.80
2018-08-13T15:20:27.240Z,55.80
2018-08-13T15:23:00.471Z,55.40
2018-08-13T15:25:30.042Z,55.30
2018-08-13T15:27:59.399Z,54.80
2018-08-13T15:30:28.713Z,54.80
2018-08-13T15:32:58.008Z,54.60
2018-08-13T15:35:27.326Z,54.50
2018-08-13T15:37:56.932Z,54.60
2018-08-13T15:40:26.235Z,54.20
2018-08-13T15:42:55.546Z,54.10
2018-08-13T15:45:25.082Z,54.10
2018-08-13T15:47:54.481Z,54.00
2018-08-13T15:50:24.464Z,53.90
2018-08-13T15:52:53.856Z,53.70
2018-08-13T15:55:23.109Z,53.20
2018-08-13T15:57:52.500Z,52.90
2018-08-13T16:00:25.325Z,52.90
2018-08-13T16:02:54.913Z,53.00
2018-08-13T16:05:24.161Z,53.00
2018-08-13T16:07:53.934Z,53.00
2018-08-13T16:10:23.669Z,53.00
2018-08-13T16:12:55.223Z,52.70
2018-08-13T16:15:25.145Z,52.50
2018-08-13T16:17:54.410Z,52.40
2018-08-13T16:20:23.655Z,52.40
2018-08-13T16:22:52.897Z,52.40
2018-08-13T16:25:22.175Z,52.30
2018-08-13T16:27:51.437Z,51.70
2018-08-13T16:30:25.688Z,51.70
2018-08-13T16:32:55.035Z,51.50
2018-08-13T16:35:25.310Z,51.70
2018-08-13T16:37:54.786Z,51.70
2018-08-13T16:40:24.045Z,51.80
2018-08-13T16:42:53.618Z,51.70
2018-08-13T16:45:23.677Z,51.70
2018-08-13T16:47:53.093Z,52.00
2018-08-13T16:50:26.661Z,52.00
2018-08-13T16:52:56.317Z,52.00
2018-08-13T16:55:26.452Z,52.80
2018-08-13T16:57:55.781Z,54.70
2018-08-13T17:00:30.083Z,56.30
2018-08-13T17:02:59.996Z,58.20
2018-08-13T17:05:31.385Z,59.20
2018-08-13T17:08:00.698Z,60.30
2018-08-13T17:10:30.393Z,63.00
2018-08-13T17:13:00.101Z,63.50
2018-08-13T17:15:31.410Z,65.10
2018-08-13T17:18:02.327Z,66.20
2018-08-13T17:20:37.689Z,67.70
2018-08-13T17:23:06.947Z,70.10
2018-08-13T17:25:36.216Z,72.20
2018-08-13T17:28:05.722Z,71.40
2018-08-13T17:30:35.088Z,71.70
2018-08-13T17:33:04.951Z,73.30
2018-08-13T17:35:35.471Z,72.20
2018-08-13T17:38:09.051Z,72.70
2018-08-13T17:40:38.293Z,73.50
2018-08-13T17:43:09.602Z,72.70
2018-08-13T17:45:38.761Z,72.70
2018-08-13T17:48:09.942Z,73.00
2018-08-13T17:50:39.394Z,74.20
2018-08-13T17:53:10.319Z,73.80
2018-08-13T17:55:39.702Z,75.00
2018-08-13T17:58:09.126Z,73.70
2018-08-13T18:00:38.364Z,72.80
2018-08-13T18:03:07.696Z,72.80
2018-08-13T18:05:36.936Z,72.70
2018-08-13T18:08:06.816Z,72.70
2018-08-13T18:10:36.066Z,73.20
2018-08-13T18:13:08.260Z,72.70
2018-08-13T18:15:37.523Z,73.60
2018-08-13T18:18:06.910Z,73.80
2018-08-13T18:20:36.208Z,74.30
2018-08-13T18:23:05.549Z,73.80
2018-08-13T18:25:34.809Z,74.10
2018-08-13T18:28:04.113Z,73.20
2018-08-13T18:30:33.399Z,73.20
2018-08-13T18:33:02.608Z,74.00
2018-08-13T18:35:31.855Z,74.10
2018-08-13T18:38:01.107Z,74.80
2018-08-13T18:40:33.043Z,74.80
2018-08-13T18:43:02.390Z,74.90
2018-08-13T18:45:31.619Z,74.60
2018-08-13T18:48:01.027Z,74.80
2018-08-13T18:50:30.289Z,75.20
2018-08-13T18:52:59.513Z,75.50
2018-08-13T18:55:28.807Z,75.60
2018-08-13T18:57:58.143Z,75.40
2018-08-13T19:00:29.368Z,74.80
2018-08-13T19:03:01.373Z,75.00
2018-08-13T19:05:30.743Z,74.60
2018-08-13T19:08:00.042Z,74.60
2018-08-13T19:10:29.299Z,74.80
2018-08-13T19:12:58.545Z,75.10
2018-08-13T19:15:28.787Z,75.40
2018-08-13T19:17:58.045Z,75.40
2018-08-13T19:20:27.365Z,75.10
2018-08-13T19:22:56.616Z,75.10
2018-08-13T19:25:27.739Z,74.80
2018-08-13T19:27:57.077Z,75.50
2018-08-13T19:30:26.900Z,75.10
2018-08-13T19:32:56.193Z,75.40
2018-08-13T19:35:25.433Z,76.20
2018-08-13T19:37:54.680Z,75.10
2018-08-13T19:40:25.192Z,76.20
2018-08-13T19:42:54.530Z,74.20
2018-08-13T19:45:24.217Z,75.10
2018-08-13T19:47:54.001Z,75.60
2018-08-13T19:50:23.253Z,75.40
2018-08-13T19:52:52.497Z,76.40
2018-08-13T19:55:22.177Z,75.40
2018-08-13T19:57:51.355Z,75.60
2018-08-13T20:00:25.416Z,75.30
2018-08-13T20:02:55.030Z,75.70
2018-08-13T20:05:25.592Z,75.70
2018-08-13T20:07:55.393Z,75.30
2018-08-13T20:10:24.631Z,75.90
2018-08-13T20:12:53.876Z,75.90
2018-08-13T20:15:23.102Z,76.00
2018-08-13T20:17:52.312Z,76.30
2018-08-13T20:20:21.935Z,76.20
2018-08-13T20:22:51.373Z,76.10
2018-08-13T20:25:21.505Z,76.90
2018-08-13T20:27:51.551Z,76.10
2018-08-13T20:30:22.035Z,76.10
2018-08-13T20:32:52.244Z,76.30
2018-08-13T20:35:21.563Z,75.90
2018-08-13T20:37:50.778Z,76.30
2018-08-13T20:40:21.079Z,76.10
2018-08-13T20:42:50.673Z,76.20
2018-08-13T20:45:21.176Z,76.30
2018-08-13T20:47:50.461Z,76.40
2018-08-13T20:50:22.313Z,76.50
2018-08-13T20:52:53.056Z,77.40
2018-08-13T20:55:24.754Z,76.30
2018-08-13T20:57:54.004Z,76.40
2018-08-13T21:00:24.899Z,76.30
2018-08-13T21:02:54.149Z,76.30
2018-08-13T21:05:23.381Z,75.90
2018-08-13T21:07:52.589Z,76.00
2018-08-13T21:10:24.533Z,75.80
2018-08-13T21:12:53.893Z,76.00
2018-08-13T21:15:23.140Z,76.50
2018-08-13T21:17:52.339Z,76.60
2018-08-13T21:20:27.001Z,76.90
2018-08-13T21:22:56.451Z,77.50
2018-08-13T21:25:25.789Z,77.70
2018-08-13T21:27:55.046Z,77.10
2018-08-13T21:30:24.307Z,77.40
2018-08-13T21:32:53.533Z,77.10
2018-08-13T21:35:25.294Z,77.20
2018-08-13T21:37:54.727Z,76.90
2018-08-13T21:40:23.968Z,76.60
2018-08-13T21:42:53.233Z,76.60
2018-08-13T21:45:22.453Z,76.30
2018-08-13T21:47:51.666Z,76.50
2018-08-13T21:50:22.225Z,77.30
2018-08-13T21:52:52.006Z,78.10
2018-08-13T21:55:21.301Z,78.50
2018-08-13T21:57:50.589Z,78.70
2018-08-13T22:00:30.017Z,78.90
2018-08-13T22:03:02.753Z,78.90
2018-08-13T22:05:32.071Z,79.00
2018-08-13T22:08:01.278Z,78.90
2018-08-13T22:10:30.535Z,79.20
2018-08-13T22:12:59.773Z,79.20
2018-08-13T22:15:30.185Z,79.60
2018-08-13T22:18:02.185Z,79.70
2018-08-13T22:20:33.121Z,79.70
2018-08-13T22:23:03.380Z,79.90
2018-08-13T22:25:35.648Z,79.90
2018-08-13T22:28:05.252Z,80.00
2018-08-13T22:30:35.187Z,79.90
2018-08-13T22:33:04.670Z,79.80
2018-08-13T22:35:33.937Z,80.00
2018-08-13T22:38:03.186Z,79.80
2018-08-13T22:40:32.417Z,79.90
2018-08-13T22:43:01.644Z,79.70
2018-08-13T22:45:30.907Z,79.90
2018-08-13T22:48:00.125Z,79.40
2018-08-13T22:50:29.348Z,79.20
2018-08-13T22:52:59.484Z,78.70
2018-08-13T22:55:28.906Z,79.00
2018-08-13T22:57:58.181Z,78.70
2018-08-13T23:00:27.404Z,78.60
2018-08-13T23:02:56.676Z,78.30
2018-08-13T23:05:27.089Z,78.40
2018-08-13T23:07:56.306Z,78.30
2018-08-13T23:10:25.856Z,78.10
2018-08-13T23:12:56.626Z,78.10
2018-08-13T23:15:26.055Z,77.60
2018-08-13T23:17:55.581Z,77.40
2018-08-13T23:20:29.320Z,77.20
2018-08-13T23:23:03.408Z,77.20
2018-08-13T23:25:35.298Z,77.20
2018-08-13T23:28:06.573Z,77.20
2018-08-13T23:30:35.820Z,77.90
2018-08-13T23:33:06.525Z,76.90
2018-08-13T23:35:35.769Z,77.30
2018-08-13T23:38:05.129Z,77.40
2018-08-13T23:40:34.430Z,77.20
2018-08-13T23:43:03.672Z,77.00
2018-08-13T23:45:33.157Z,76.90
2018-08-13T23:48:02.384Z,77.10
2018-08-13T23:50:31.598Z,77.20
2018-08-13T23:53:01.953Z,77.40
2018-08-13T23:55:39.869Z,77.20
2018-08-13T23:58:13.601Z,77.70
